sensor_id;sensor_type;location;lat;lon;timestamp;P1;durP1;ratioP1;P2;durP2;ratioP2
68386;SDS011;55338;43.062;25.624;2023-05-10T00:00:22;7.07;;;2.90;;
68386;SDS011;55338;43.062;25.624;2023-05-10T00:02:48;5.93;;;3.08;;
68386;SDS011;55338;43.062;25.624;2023-05-10T00:05:14;6.13;;;2.87;;
68386;SDS011;55338;43.062;25.624;2023-05-10T00:07:40;5.88;;;2.67;;
68386;SDS011;55338;43.062;25.624;2023-05-10T00:10:09;6.45;;;2.90;;
68386;SDS011;55338;43.062;25.624;2023-05-10T00:12:35;5.95;;;3.20;;
68386;SDS011;55338;43.062;25.624;2023-05-10T00:15:01;12.17;;;3.17;;
68386;SDS011;55338;43.062;25.624;2023-05-10T00:17:28;5.22;;;2.80;;
68386;SDS011;55338;43.062;25.624;2023-05-10T00:19:53;5.22;;;2.90;;
68386;SDS011;55338;43.062;25.624;2023-05-10T00:22:52;6.10;;;2.80;;
68386;SDS011;55338;43.062;25.624;2023-05-10T00:25:17;7.23;;;2.97;;
68386;SDS011;55338;43.062;25.624;2023-05-10T00:27:43;6.72;;;2.88;;
68386;SDS011;55338;43.062;25.624;2023-05-10T00:30:09;5.47;;;2.90;;
68386;SDS011;55338;43.062;25.624;2023-05-10T00:32:35;7.05;;;2.80;;
68386;SDS011;55338;43.062;25.624;2023-05-10T00:35:00;5.30;;;2.67;;
68386;SDS011;55338;43.062;25.624;2023-05-10T00:37:26;6.78;;;3.15;;
68386;SDS011;55338;43.062;25.624;2023-05-10T00:39:52;7.03;;;3.20;;
68386;SDS011;55338;43.062;25.624;2023-05-10T00:42:18;7.30;;;2.57;;
68386;SDS011;55338;43.062;25.624;2023-05-10T00:44:44;6.13;;;2.70;;
68386;SDS011;55338;43.062;25.624;2023-05-10T00:47:09;10.10;;;2.80;;
68386;SDS011;55338;43.062;25.624;2023-05-10T00:49:36;7.82;;;3.30;;
68386;SDS011;55338;43.062;25.624;2023-05-10T00:52:02;10.18;;;2.78;;
68386;SDS011;55338;43.062;25.624;2023-05-10T00:55:00;6.93;;;3.15;;
68386;SDS011;55338;43.062;25.624;2023-05-10T00:57:28;6.97;;;2.90;;
68386;SDS011;55338;43.062;25.624;2023-05-10T00:59:54;9.13;;;3.03;;
68386;SDS011;55338;43.062;25.624;2023-05-10T01:02:20;5.28;;;2.67;;
68386;SDS011;55338;43.062;25.624;2023-05-10T01:04:45;9.77;;;3.07;;
68386;SDS011;55338;43.062;25.624;2023-05-10T01:07:12;6.20;;;2.95;;
68386;SDS011;55338;43.062;25.624;2023-05-10T01:09:38;12.98;;;3.60;;
68386;SDS011;55338;43.062;25.624;2023-05-10T01:12:04;6.38;;;2.80;;
68386;SDS011;55338;43.062;25.624;2023-05-10T01:14:31;6.82;;;2.80;;
68386;SDS011;55338;43.062;25.624;2023-05-10T01:16:58;11.25;;;3.10;;
68386;SDS011;55338;43.062;25.624;2023-05-10T01:19:26;7.47;;;2.53;;
68386;SDS011;55338;43.062;25.624;2023-05-10T01:39:06;4.85;;;2.20;;
68386;SDS011;55338;43.062;25.624;2023-05-10T01:47:35;5.43;;;2.25;;
68386;SDS011;55338;43.062;25.624;2023-05-10T01:50:06;6.00;;;2.40;;
68386;SDS011;55338;43.062;25.624;2023-05-10T01:52:44;7.03;;;3.05;;
68386;SDS011;55338;43.062;25.624;2023-05-10T01:55:48;7.07;;;2.38;;
68386;SDS011;55338;43.062;25.624;2023-05-10T01:58:49;12.15;;;2.85;;
68386;SDS011;55338;43.062;25.624;2023-05-10T02:01:16;8.02;;;3.00;;
68386;SDS011;55338;43.062;25.624;2023-05-10T02:03:45;14.27;;;2.97;;
68386;SDS011;55338;43.062;25.624;2023-05-10T02:13:25;7.05;;;2.63;;
68386;SDS011;55338;43.062;25.624;2023-05-10T02:15:53;10.02;;;3.20;;
68386;SDS011;55338;43.062;25.624;2023-05-10T02:18:21;7.43;;;2.83;;
68386;SDS011;55338;43.062;25.624;2023-05-10T02:20:48;12.35;;;3.08;;
68386;SDS011;55338;43.062;25.624;2023-05-10T02:23:16;6.60;;;3.03;;
68386;SDS011;55338;43.062;25.624;2023-05-10T02:25:43;7.35;;;3.08;;
68386;SDS011;55338;43.062;25.624;2023-05-10T02:28:10;7.93;;;2.38;;
68386;SDS011;55338;43.062;25.624;2023-05-10T02:30:38;6.40;;;2.70;;
68386;SDS011;55338;43.062;25.624;2023-05-10T02:33:04;5.65;;;2.47;;
68386;SDS011;55338;43.062;25.624;2023-05-10T02:35:31;6.60;;;2.72;;
68386;SDS011;55338;43.062;25.624;2023-05-10T02:37:58;6.85;;;2.20;;
68386;SDS011;55338;43.062;25.624;2023-05-10T02:40:25;9.73;;;2.90;;
68386;SDS011;55338;43.062;25.624;2023-05-10T02:42:52;4.07;;;2.17;;
68386;SDS011;55338;43.062;25.624;2023-05-10T02:45:21;5.70;;;2.72;;
68386;SDS011;55338;43.062;25.624;2023-05-10T02:47:51;3.80;;;2.13;;
68386;SDS011;55338;43.062;25.624;2023-05-10T02:50:17;6.13;;;2.63;;
68386;SDS011;55338;43.062;25.624;2023-05-10T02:52:47;4.80;;;2.53;;
68386;SDS011;55338;43.062;25.624;2023-05-10T02:55:17;14.93;;;3.37;;
68386;SDS011;55338;43.062;25.624;2023-05-10T02:58:19;6.53;;;2.50;;
68386;SDS011;55338;43.062;25.624;2023-05-10T03:01:18;12.85;;;2.90;;
68386;SDS011;55338;43.062;25.624;2023-05-10T03:03:50;5.18;;;2.58;;
68386;SDS011;55338;43.062;25.624;2023-05-10T03:06:16;9.47;;;2.90;;
68386;SDS011;55338;43.062;25.624;2023-05-10T03:08:42;5.57;;;2.47;;
68386;SDS011;55338;43.062;25.624;2023-05-10T03:16:36;8.25;;;2.83;;
68386;SDS011;55338;43.062;25.624;2023-05-10T03:19:27;12.27;;;2.92;;
68386;SDS011;55338;43.062;25.624;2023-05-10T03:21:59;7.85;;;2.90;;
68386;SDS011;55338;43.062;25.624;2023-05-10T03:24:28;9.85;;;3.58;;
68386;SDS011;55338;43.062;25.624;2023-05-10T03:26:56;13.57;;;3.53;;
68386;SDS011;55338;43.062;25.624;2023-05-10T03:29:59;20.10;;;4.03;;
68386;SDS011;55338;43.062;25.624;2023-05-10T03:33:04;10.05;;;3.20;;
68386;SDS011;55338;43.062;25.624;2023-05-10T03:36:03;10.45;;;2.88;;
68386;SDS011;55338;43.062;25.624;2023-05-10T03:38:29;5.60;;;2.90;;
68386;SDS011;55338;43.062;25.624;2023-05-10T03:40:54;9.17;;;2.97;;
68386;SDS011;55338;43.062;25.624;2023-05-10T03:43:20;6.88;;;3.25;;
68386;SDS011;55338;43.062;25.624;2023-05-10T03:45:46;10.53;;;3.30;;
68386;SDS011;55338;43.062;25.624;2023-05-10T03:48:12;8.65;;;3.05;;
68386;SDS011;55338;43.062;25.624;2023-05-10T03:50:38;10.02;;;2.75;;
68386;SDS011;55338;43.062;25.624;2023-05-10T03:53:04;6.37;;;3.43;;
68386;SDS011;55338;43.062;25.624;2023-05-10T03:55:30;8.73;;;3.60;;
68386;SDS011;55338;43.062;25.624;2023-05-10T03:57:59;14.00;;;3.57;;
68386;SDS011;55338;43.062;25.624;2023-05-10T04:00:57;9.00;;;3.20;;
68386;SDS011;55338;43.062;25.624;2023-05-10T04:03:55;10.50;;;2.90;;
68386;SDS011;55338;43.062;25.624;2023-05-10T04:06:53;6.20;;;2.85;;
68386;SDS011;55338;43.062;25.624;2023-05-10T04:09:19;5.60;;;2.70;;
68386;SDS011;55338;43.062;25.624;2023-05-10T04:11:45;8.87;;;3.30;;
68386;SDS011;55338;43.062;25.624;2023-05-10T04:14:11;6.88;;;3.35;;
68386;SDS011;55338;43.062;25.624;2023-05-10T04:16:37;8.53;;;3.10;;
68386;SDS011;55338;43.062;25.624;2023-05-10T04:19:02;6.72;;;2.75;;
68386;SDS011;55338;43.062;25.624;2023-05-10T04:21:28;10.68;;;3.20;;
68386;SDS011;55338;43.062;25.624;2023-05-10T04:23:54;5.53;;;2.50;;
68386;SDS011;55338;43.062;25.624;2023-05-10T04:26:20;4.90;;;2.33;;
68386;SDS011;55338;43.062;25.624;2023-05-10T04:28:47;7.38;;;2.47;;
68386;SDS011;55338;43.062;25.624;2023-05-10T04:31:44;9.48;;;3.17;;
68386;SDS011;55338;43.062;25.624;2023-05-10T04:34:10;7.83;;;2.90;;
68386;SDS011;55338;43.062;25.624;2023-05-10T04:36:35;9.63;;;3.22;;
68386;SDS011;55338;43.062;25.624;2023-05-10T04:39:02;6.27;;;3.20;;
68386;SDS011;55338;43.062;25.624;2023-05-10T04:41:28;17.83;;;3.47;;
68386;SDS011;55338;43.062;25.624;2023-05-10T04:43:54;4.30;;;2.30;;
68386;SDS011;55338;43.062;25.624;2023-05-10T04:46:20;5.55;;;3.00;;
68386;SDS011;55338;43.062;25.624;2023-05-10T04:48:46;7.20;;;2.80;;
68386;SDS011;55338;43.062;25.624;2023-05-10T04:51:12;6.00;;;2.75;;
68386;SDS011;55338;43.062;25.624;2023-05-10T04:53:37;7.80;;;2.50;;
68386;SDS011;55338;43.062;25.624;2023-05-10T04:56:03;6.18;;;2.83;;
68386;SDS011;55338;43.062;25.624;2023-05-10T04:58:29;6.50;;;2.78;;
68386;SDS011;55338;43.062;25.624;2023-05-10T05:00:55;6.13;;;2.50;;
68386;SDS011;55338;43.062;25.624;2023-05-10T05:03:53;7.28;;;3.10;;
68386;SDS011;55338;43.062;25.624;2023-05-10T05:06:19;6.00;;;2.67;;
68386;SDS011;55338;43.062;25.624;2023-05-10T05:08:46;9.45;;;3.35;;
68386;SDS011;55338;43.062;25.624;2023-05-10T05:11:12;4.85;;;2.53;;
68386;SDS011;55338;43.062;25.624;2023-05-10T05:13:37;5.57;;;2.55;;
68386;SDS011;55338;43.062;25.624;2023-05-10T05:16:03;6.47;;;2.75;;
68386;SDS011;55338;43.062;25.624;2023-05-10T05:18:30;5.13;;;2.47;;
68386;SDS011;55338;43.062;25.624;2023-05-10T05:20:56;6.80;;;2.30;;
68386;SDS011;55338;43.062;25.624;2023-05-10T05:23:21;6.07;;;2.50;;
68386;SDS011;55338;43.062;25.624;2023-05-10T05:25:50;5.77;;;2.33;;
68386;SDS011;55338;43.062;25.624;2023-05-10T05:28:17;6.07;;;2.53;;
68386;SDS011;55338;43.062;25.624;2023-05-10T05:30:43;6.03;;;2.60;;
68386;SDS011;55338;43.062;25.624;2023-05-10T05:33:09;5.22;;;2.17;;
68386;SDS011;55338;43.062;25.624;2023-05-10T05:36:07;7.15;;;2.70;;
68386;SDS011;55338;43.062;25.624;2023-05-10T05:38:33;6.03;;;2.70;;
68386;SDS011;55338;43.062;25.624;2023-05-10T05:40:59;4.50;;;2.17;;
68386;SDS011;55338;43.062;25.624;2023-05-10T05:43:25;5.70;;;2.60;;
68386;SDS011;55338;43.062;25.624;2023-05-10T05:45:52;6.57;;;2.50;;
68386;SDS011;55338;43.062;25.624;2023-05-10T05:48:18;4.70;;;2.50;;
68386;SDS011;55338;43.062;25.624;2023-05-10T05:50:44;4.73;;;2.20;;
68386;SDS011;55338;43.062;25.624;2023-05-10T05:53:10;6.10;;;2.35;;
68386;SDS011;55338;43.062;25.624;2023-05-10T05:55:36;4.07;;;2.20;;
68386;SDS011;55338;43.062;25.624;2023-05-10T05:58:02;5.83;;;2.20;;
68386;SDS011;55338;43.062;25.624;2023-05-10T06:00:28;4.40;;;2.40;;
68386;SDS011;55338;43.062;25.624;2023-05-10T06:02:54;4.57;;;2.28;;
68386;SDS011;55338;43.062;25.624;2023-05-10T06:05:19;4.47;;;2.35;;
68386;SDS011;55338;43.062;25.624;2023-05-10T06:07:52;4.22;;;2.20;;
68386;SDS011;55338;43.062;25.624;2023-05-10T06:10:17;4.80;;;2.47;;
68386;SDS011;55338;43.062;25.624;2023-05-10T06:12:43;4.70;;;2.17;;
68386;SDS011;55338;43.062;25.624;2023-05-10T06:15:09;8.63;;;2.47;;
68386;SDS011;55338;43.062;25.624;2023-05-10T06:17:35;4.53;;;1.85;;
68386;SDS011;55338;43.062;25.624;2023-05-10T06:20:01;4.63;;;1.93;;
68386;SDS011;55338;43.062;25.624;2023-05-10T06:22:27;4.63;;;2.40;;
68386;SDS011;55338;43.062;25.624;2023-05-10T06:24:53;4.68;;;2.28;;
68386;SDS011;55338;43.062;25.624;2023-05-10T06:27:18;5.00;;;2.10;;
68386;SDS011;55338;43.062;25.624;2023-05-10T06:29:44;5.78;;;2.10;;
68386;SDS011;55338;43.062;25.624;2023-05-10T06:32:10;4.97;;;2.00;;
68386;SDS011;55338;43.062;25.624;2023-05-10T06:34:35;5.72;;;2.05;;
68386;SDS011;55338;43.062;25.624;2023-05-10T06:37:01;4.23;;;2.70;;
68386;SDS011;55338;43.062;25.624;2023-05-10T06:39:40;4.25;;;1.95;;
68386;SDS011;55338;43.062;25.624;2023-05-10T06:42:05;4.75;;;2.80;;
68386;SDS011;55338;43.062;25.624;2023-05-10T06:44:31;4.93;;;2.10;;
68386;SDS011;55338;43.062;25.624;2023-05-10T06:46:57;3.63;;;1.80;;
68386;SDS011;55338;43.062;25.624;2023-05-10T06:49:22;3.83;;;1.93;;
68386;SDS011;55338;43.062;25.624;2023-05-10T06:51:48;4.25;;;2.20;;
68386;SDS011;55338;43.062;25.624;2023-05-10T06:54:14;4.97;;;2.00;;
68386;SDS011;55338;43.062;25.624;2023-05-10T06:56:39;7.47;;;2.13;;
68386;SDS011;55338;43.062;25.624;2023-05-10T06:59:05;4.20;;;1.87;;
68386;SDS011;55338;43.062;25.624;2023-05-10T07:01:31;6.07;;;2.20;;
68386;SDS011;55338;43.062;25.624;2023-05-10T07:03:57;6.07;;;2.30;;
68386;SDS011;55338;43.062;25.624;2023-05-10T07:06:23;4.65;;;1.90;;
68386;SDS011;55338;43.062;25.624;2023-05-10T07:08:48;4.90;;;2.40;;
68386;SDS011;55338;43.062;25.624;2023-05-10T07:11:46;8.68;;;2.30;;
68386;SDS011;55338;43.062;25.624;2023-05-10T07:14:12;3.88;;;2.40;;
68386;SDS011;55338;43.062;25.624;2023-05-10T07:16:38;3.97;;;2.40;;
68386;SDS011;55338;43.062;25.624;2023-05-10T07:19:04;4.13;;;2.35;;
68386;SDS011;55338;43.062;25.624;2023-05-10T07:21:30;3.88;;;2.00;;
68386;SDS011;55338;43.062;25.624;2023-05-10T07:23:56;4.30;;;2.00;;
68386;SDS011;55338;43.062;25.624;2023-05-10T07:26:22;5.30;;;2.35;;
68386;SDS011;55338;43.062;25.624;2023-05-10T07:28:47;4.28;;;2.50;;
68386;SDS011;55338;43.062;25.624;2023-05-10T07:31:13;7.17;;;2.00;;
68386;SDS011;55338;43.062;25.624;2023-05-10T07:33:39;4.45;;;2.40;;
68386;SDS011;55338;43.062;25.624;2023-05-10T07:36:05;4.10;;;2.30;;
68386;SDS011;55338;43.062;25.624;2023-05-10T07:38:31;3.42;;;1.90;;
68386;SDS011;55338;43.062;25.624;2023-05-10T07:40:56;4.53;;;2.53;;
68386;SDS011;55338;43.062;25.624;2023-05-10T07:43:22;8.17;;;2.00;;
68386;SDS011;55338;43.062;25.624;2023-05-10T07:45:48;6.55;;;2.67;;
68386;SDS011;55338;43.062;25.624;2023-05-10T07:48:14;3.60;;;2.10;;
68386;SDS011;55338;43.062;25.624;2023-05-10T07:50:39;3.20;;;1.83;;
68386;SDS011;55338;43.062;25.624;2023-05-10T07:53:05;3.47;;;2.10;;
68386;SDS011;55338;43.062;25.624;2023-05-10T07:55:31;5.05;;;2.20;;
68386;SDS011;55338;43.062;25.624;2023-05-10T07:57:57;13.25;;;2.60;;
68386;SDS011;55338;43.062;25.624;2023-05-10T08:00:26;4.45;;;2.30;;
68386;SDS011;55338;43.062;25.624;2023-05-10T08:02:52;3.20;;;1.80;;
68386;SDS011;55338;43.062;25.624;2023-05-10T08:05:18;5.88;;;2.40;;
68386;SDS011;55338;43.062;25.624;2023-05-10T08:07:43;7.15;;;2.25;;
68386;SDS011;55338;43.062;25.624;2023-05-10T08:10:09;3.80;;;2.30;;
68386;SDS011;55338;43.062;25.624;2023-05-10T08:12:36;4.25;;;2.50;;
68386;SDS011;55338;43.062;25.624;2023-05-10T08:15:36;4.05;;;2.03;;
68386;SDS011;55338;43.062;25.624;2023-05-10T08:18:01;4.50;;;2.40;;
68386;SDS011;55338;43.062;25.624;2023-05-10T08:20:27;5.68;;;2.53;;
68386;SDS011;55338;43.062;25.624;2023-05-10T08:22:53;4.33;;;2.30;;
68386;SDS011;55338;43.062;25.624;2023-05-10T08:25:18;5.28;;;2.20;;
68386;SDS011;55338;43.062;25.624;2023-05-10T08:27:44;4.17;;;2.50;;
68386;SDS011;55338;43.062;25.624;2023-05-10T08:30:10;4.45;;;2.13;;
68386;SDS011;55338;43.062;25.624;2023-05-10T08:32:37;4.05;;;2.35;;
68386;SDS011;55338;43.062;25.624;2023-05-10T08:35:03;2.90;;;1.80;;
68386;SDS011;55338;43.062;25.624;2023-05-10T08:37:31;3.78;;;2.10;;
68386;SDS011;55338;43.062;25.624;2023-05-10T08:39:58;4.45;;;2.40;;
68386;SDS011;55338;43.062;25.624;2023-05-10T08:42:23;4.30;;;2.20;;
68386;SDS011;55338;43.062;25.624;2023-05-10T08:44:53;4.25;;;2.20;;
68386;SDS011;55338;43.062;25.624;2023-05-10T08:47:25;3.55;;;2.28;;
68386;SDS011;55338;43.062;25.624;2023-05-10T08:49:51;4.25;;;2.65;;
68386;SDS011;55338;43.062;25.624;2023-05-10T08:52:17;4.55;;;2.50;;
68386;SDS011;55338;43.062;25.624;2023-05-10T08:54:43;4.33;;;2.40;;
68386;SDS011;55338;43.062;25.624;2023-05-10T08:57:10;5.22;;;2.00;;
68386;SDS011;55338;43.062;25.624;2023-05-10T08:59:36;4.40;;;2.58;;
68386;SDS011;55338;43.062;25.624;2023-05-10T09:02:04;4.13;;;1.98;;
68386;SDS011;55338;43.062;25.624;2023-05-10T09:04:31;5.25;;;2.63;;
68386;SDS011;55338;43.062;25.624;2023-05-10T09:06:57;4.60;;;2.53;;
68386;SDS011;55338;43.062;25.624;2023-05-10T09:09:23;5.05;;;2.42;;
68386;SDS011;55338;43.062;25.624;2023-05-10T09:11:50;4.25;;;2.58;;
68386;SDS011;55338;43.062;25.624;2023-05-10T09:14:17;4.60;;;2.30;;
68386;SDS011;55338;43.062;25.624;2023-05-10T09:17:16;4.32;;;2.15;;
68386;SDS011;55338;43.062;25.624;2023-05-10T09:19:57;4.82;;;2.03;;
68386;SDS011;55338;43.062;25.624;2023-05-10T09:22:23;3.60;;;2.28;;
68386;SDS011;55338;43.062;25.624;2023-05-10T09:25:03;3.50;;;2.33;;
68386;SDS011;55338;43.062;25.624;2023-05-10T09:27:36;4.33;;;2.60;;
68386;SDS011;55338;43.062;25.624;2023-05-10T09:30:04;5.47;;;2.40;;
68386;SDS011;55338;43.062;25.624;2023-05-10T09:35:10;3.88;;;2.30;;
68386;SDS011;55338;43.062;25.624;2023-05-10T09:37:41;3.28;;;2.15;;
68386;SDS011;55338;43.062;25.624;2023-05-10T09:40:12;3.70;;;2.33;;
68386;SDS011;55338;43.062;25.624;2023-05-10T09:42:41;3.67;;;2.30;;
68386;SDS011;55338;43.062;25.624;2023-05-10T09:45:15;5.70;;;2.00;;
68386;SDS011;55338;43.062;25.624;2023-05-10T09:48:13;3.72;;;2.20;;
68386;SDS011;55338;43.062;25.624;2023-05-10T09:51:21;3.25;;;2.00;;
68386;SDS011;55338;43.062;25.624;2023-05-10T09:56:37;3.20;;;2.05;;
68386;SDS011;55338;43.062;25.624;2023-05-10T09:59:05;3.92;;;2.25;;
68386;SDS011;55338;43.062;25.624;2023-05-10T10:01:33;4.18;;;2.22;;
68386;SDS011;55338;43.062;25.624;2023-05-10T10:04:02;3.75;;;2.25;;
68386;SDS011;55338;43.062;25.624;2023-05-10T10:06:36;3.83;;;2.40;;
68386;SDS011;55338;43.062;25.624;2023-05-10T10:09:08;3.63;;;2.17;;
68386;SDS011;55338;43.062;25.624;2023-05-10T10:11:37;5.15;;;2.17;;
68386;SDS011;55338;43.062;25.624;2023-05-10T10:14:04;4.78;;;2.40;;
68386;SDS011;55338;43.062;25.624;2023-05-10T10:16:30;5.30;;;2.00;;
68386;SDS011;55338;43.062;25.624;2023-05-10T10:19:29;3.30;;;1.80;;
68386;SDS011;55338;43.062;25.624;2023-05-10T10:22:29;3.70;;;2.05;;
68386;SDS011;55338;43.062;25.624;2023-05-10T10:24:55;4.38;;;1.83;;
68386;SDS011;55338;43.062;25.624;2023-05-10T10:29:52;4.78;;;1.90;;
68386;SDS011;55338;43.062;25.624;2023-05-10T10:35:55;3.50;;;2.08;;
68386;SDS011;55338;43.062;25.624;2023-05-10T10:38:24;3.97;;;2.20;;
68386;SDS011;55338;43.062;25.624;2023-05-10T10:41:33;4.53;;;2.00;;
68386;SDS011;55338;43.062;25.624;2023-05-10T10:55:14;3.40;;;2.15;;
68386;SDS011;55338;43.062;25.624;2023-05-10T10:57:50;5.20;;;1.63;;
68386;SDS011;55338;43.062;25.624;2023-05-10T11:03:14;3.22;;;1.90;;
68386;SDS011;55338;43.062;25.624;2023-05-10T11:05:50;4.25;;;1.70;;
68386;SDS011;55338;43.062;25.624;2023-05-10T11:08:26;3.67;;;2.10;;
68386;SDS011;55338;43.062;25.624;2023-05-10T11:13:29;3.35;;;1.90;;
68386;SDS011;55338;43.062;25.624;2023-05-10T11:16:10;3.97;;;2.15;;
68386;SDS011;55338;43.062;25.624;2023-05-10T11:22:12;3.72;;;1.70;;
68386;SDS011;55338;43.062;25.624;2023-05-10T11:24:40;5.25;;;1.80;;
68386;SDS011;55338;43.062;25.624;2023-05-10T11:27:21;4.57;;;1.92;;
68386;SDS011;55338;43.062;25.624;2023-05-10T11:29:51;4.70;;;2.17;;
68386;SDS011;55338;43.062;25.624;2023-05-10T11:32:16;3.30;;;2.08;;
68386;SDS011;55338;43.062;25.624;2023-05-10T11:34:46;4.55;;;2.10;;
68386;SDS011;55338;43.062;25.624;2023-05-10T11:37:13;5.80;;;1.85;;
68386;SDS011;55338;43.062;25.624;2023-05-10T11:40:11;4.93;;;1.95;;
68386;SDS011;55338;43.062;25.624;2023-05-10T11:43:09;3.65;;;1.98;;
68386;SDS011;55338;43.062;25.624;2023-05-10T11:46:09;5.88;;;1.85;;
68386;SDS011;55338;43.062;25.624;2023-05-10T11:49:09;5.00;;;2.50;;
68386;SDS011;55338;43.062;25.624;2023-05-10T11:52:08;4.53;;;2.58;;
68386;SDS011;55338;43.062;25.624;2023-05-10T11:54:36;3.67;;;2.27;;
68386;SDS011;55338;43.062;25.624;2023-05-10T11:57:02;3.65;;;2.17;;
68386;SDS011;55338;43.062;25.624;2023-05-10T11:59:28;3.88;;;2.22;;
68386;SDS011;55338;43.062;25.624;2023-05-10T12:01:53;4.33;;;2.40;;
68386;SDS011;55338;43.062;25.624;2023-05-10T12:04:20;5.78;;;2.25;;
68386;SDS011;55338;43.062;25.624;2023-05-10T12:06:46;3.80;;;1.77;;
68386;SDS011;55338;43.062;25.624;2023-05-10T12:09:13;3.10;;;1.98;;
68386;SDS011;55338;43.062;25.624;2023-05-10T12:11:40;2.85;;;1.90;;
68386;SDS011;55338;43.062;25.624;2023-05-10T12:14:06;3.53;;;2.23;;
68386;SDS011;55338;43.062;25.624;2023-05-10T12:16:33;4.82;;;2.33;;
68386;SDS011;55338;43.062;25.624;2023-05-10T12:18:59;3.67;;;2.00;;
68386;SDS011;55338;43.062;25.624;2023-05-10T12:21:26;4.18;;;2.50;;
68386;SDS011;55338;43.062;25.624;2023-05-10T12:24:26;4.00;;;2.00;;
68386;SDS011;55338;43.062;25.624;2023-05-10T12:26:55;4.65;;;2.35;;
68386;SDS011;55338;43.062;25.624;2023-05-10T12:29:21;3.40;;;2.50;;
68386;SDS011;55338;43.062;25.624;2023-05-10T12:34:30;3.33;;;2.47;;
68386;SDS011;55338;43.062;25.624;2023-05-10T12:36:56;3.53;;;2.35;;
68386;SDS011;55338;43.062;25.624;2023-05-10T12:39:22;3.40;;;2.25;;
68386;SDS011;55338;43.062;25.624;2023-05-10T12:41:48;3.40;;;2.50;;
68386;SDS011;55338;43.062;25.624;2023-05-10T12:44:14;3.47;;;2.37;;
68386;SDS011;55338;43.062;25.624;2023-05-10T12:46:40;3.55;;;2.03;;
68386;SDS011;55338;43.062;25.624;2023-05-10T12:49:06;3.20;;;2.40;;
68386;SDS011;55338;43.062;25.624;2023-05-10T12:51:31;3.72;;;2.10;;
68386;SDS011;55338;43.062;25.624;2023-05-10T12:53:57;3.27;;;2.17;;
68386;SDS011;55338;43.062;25.624;2023-05-10T12:56:23;3.28;;;2.28;;
68386;SDS011;55338;43.062;25.624;2023-05-10T12:58:49;4.72;;;2.20;;
68386;SDS011;55338;43.062;25.624;2023-05-10T13:01:18;3.50;;;2.03;;
68386;SDS011;55338;43.062;25.624;2023-05-10T13:03:43;3.10;;;1.90;;
68386;SDS011;55338;43.062;25.624;2023-05-10T13:06:09;4.80;;;2.50;;
68386;SDS011;55338;43.062;25.624;2023-05-10T13:08:35;3.67;;;2.25;;
68386;SDS011;55338;43.062;25.624;2023-05-10T13:11:01;3.50;;;1.83;;
68386;SDS011;55338;43.062;25.624;2023-05-10T13:13:27;5.95;;;2.58;;
68386;SDS011;55338;43.062;25.624;2023-05-10T13:15:53;5.45;;;2.22;;
68386;SDS011;55338;43.062;25.624;2023-05-10T13:18:19;4.95;;;2.55;;
68386;SDS011;55338;43.062;25.624;2023-05-10T13:20:45;6.97;;;2.20;;
68386;SDS011;55338;43.062;25.624;2023-05-10T13:23:11;4.13;;;2.40;;
68386;SDS011;55338;43.062;25.624;2023-05-10T13:25:41;5.43;;;2.30;;
68386;SDS011;55338;43.062;25.624;2023-05-10T13:28:07;4.20;;;2.10;;
68386;SDS011;55338;43.062;25.624;2023-05-10T13:30:32;3.47;;;2.40;;
68386;SDS011;55338;43.062;25.624;2023-05-10T13:32:58;4.40;;;2.10;;
68386;SDS011;55338;43.062;25.624;2023-05-10T13:35:24;5.30;;;2.60;;
68386;SDS011;55338;43.062;25.624;2023-05-10T13:37:50;3.93;;;2.07;;
68386;SDS011;55338;43.062;25.624;2023-05-10T13:40:15;4.10;;;2.30;;
68386;SDS011;55338;43.062;25.624;2023-05-10T13:42:41;4.17;;;2.30;;
68386;SDS011;55338;43.062;25.624;2023-05-10T13:45:07;3.88;;;2.10;;
68386;SDS011;55338;43.062;25.624;2023-05-10T13:47:33;3.92;;;1.92;;
68386;SDS011;55338;43.062;25.624;2023-05-10T13:49:59;3.87;;;1.93;;
68386;SDS011;55338;43.062;25.624;2023-05-10T13:52:26;3.63;;;2.00;;
68386;SDS011;55338;43.062;25.624;2023-05-10T13:54:52;4.97;;;2.05;;
68386;SDS011;55338;43.062;25.624;2023-05-10T13:57:20;2.85;;;1.60;;
68386;SDS011;55338;43.062;25.624;2023-05-10T13:59:46;4.78;;;2.15;;
68386;SDS011;55338;43.062;25.624;2023-05-10T14:02:12;3.90;;;1.98;;
68386;SDS011;55338;43.062;25.624;2023-05-10T14:04:38;3.78;;;1.88;;
68386;SDS011;55338;43.062;25.624;2023-05-10T14:07:04;4.53;;;1.60;;
68386;SDS011;55338;43.062;25.624;2023-05-10T14:09:30;4.22;;;2.22;;
68386;SDS011;55338;43.062;25.624;2023-05-10T14:11:56;4.45;;;1.98;;
68386;SDS011;55338;43.062;25.624;2023-05-10T14:14:22;3.65;;;1.92;;
68386;SDS011;55338;43.062;25.624;2023-05-10T14:16:48;3.03;;;1.83;;
68386;SDS011;55338;43.062;25.624;2023-05-10T14:19:14;4.82;;;2.00;;
68386;SDS011;55338;43.062;25.624;2023-05-10T14:21:39;3.10;;;1.80;;
68386;SDS011;55338;43.062;25.624;2023-05-10T14:24:05;5.47;;;2.10;;
68386;SDS011;55338;43.062;25.624;2023-05-10T14:26:32;3.22;;;2.10;;
68386;SDS011;55338;43.062;25.624;2023-05-10T14:28:59;4.10;;;2.08;;
68386;SDS011;55338;43.062;25.624;2023-05-10T14:31:25;3.28;;;1.90;;
68386;SDS011;55338;43.062;25.624;2023-05-10T14:33:51;3.85;;;2.40;;
68386;SDS011;55338;43.062;25.624;2023-05-10T14:36:17;5.10;;;1.77;;
68386;SDS011;55338;43.062;25.624;2023-05-10T14:38:43;3.57;;;2.07;;
68386;SDS011;55338;43.062;25.624;2023-05-10T14:41:08;4.38;;;1.90;;
68386;SDS011;55338;43.062;25.624;2023-05-10T14:43:38;5.60;;;1.98;;
68386;SDS011;55338;43.062;25.624;2023-05-10T14:46:04;3.33;;;2.00;;
68386;SDS011;55338;43.062;25.624;2023-05-10T14:48:30;3.17;;;1.75;;
68386;SDS011;55338;43.062;25.624;2023-05-10T14:50:56;3.33;;;2.13;;
68386;SDS011;55338;43.062;25.624;2023-05-10T14:53:22;3.38;;;1.83;;
68386;SDS011;55338;43.062;25.624;2023-05-10T14:55:47;4.30;;;2.10;;
68386;SDS011;55338;43.062;25.624;2023-05-10T14:58:13;3.80;;;2.00;;
68386;SDS011;55338;43.062;25.624;2023-05-10T15:00:40;4.57;;;2.08;;
68386;SDS011;55338;43.062;25.624;2023-05-10T15:03:06;3.53;;;2.00;;
68386;SDS011;55338;43.062;25.624;2023-05-10T15:05:31;3.78;;;2.00;;
68386;SDS011;55338;43.062;25.624;2023-05-10T15:07:57;3.50;;;1.90;;
68386;SDS011;55338;43.062;25.624;2023-05-10T15:10:23;3.47;;;2.20;;
68386;SDS011;55338;43.062;25.624;2023-05-10T15:12:49;3.65;;;2.17;;
68386;SDS011;55338;43.062;25.624;2023-05-10T15:15:15;5.25;;;2.17;;
68386;SDS011;55338;43.062;25.624;2023-05-10T15:17:41;4.38;;;2.40;;
68386;SDS011;55338;43.062;25.624;2023-05-10T15:20:07;3.30;;;2.10;;
68386;SDS011;55338;43.062;25.624;2023-05-10T15:22:33;3.13;;;1.73;;
68386;SDS011;55338;43.062;25.624;2023-05-10T15:24:58;3.58;;;2.00;;
68386;SDS011;55338;43.062;25.624;2023-05-10T15:27:24;5.67;;;2.03;;
68386;SDS011;55338;43.062;25.624;2023-05-10T15:29:58;3.80;;;2.40;;
68386;SDS011;55338;43.062;25.624;2023-05-10T15:32:24;3.30;;;2.10;;
68386;SDS011;55338;43.062;25.624;2023-05-10T15:34:50;4.37;;;2.30;;
68386;SDS011;55338;43.062;25.624;2023-05-10T15:37:16;3.95;;;2.03;;
68386;SDS011;55338;43.062;25.624;2023-05-10T15:39:42;3.72;;;1.90;;
68386;SDS011;55338;43.062;25.624;2023-05-10T15:42:08;3.30;;;1.93;;
68386;SDS011;55338;43.062;25.624;2023-05-10T15:44:34;3.53;;;2.17;;
68386;SDS011;55338;43.062;25.624;2023-05-10T15:47:00;3.75;;;2.20;;
68386;SDS011;55338;43.062;25.624;2023-05-10T15:49:27;5.13;;;2.47;;
68386;SDS011;55338;43.062;25.624;2023-05-10T15:51:53;5.72;;;1.88;;
68386;SDS011;55338;43.062;25.624;2023-05-10T15:54:19;5.15;;;2.53;;
68386;SDS011;55338;43.062;25.624;2023-05-10T15:56:44;3.60;;;2.22;;